sensor_id;sensor_type;location;lat;lon;timestamp;pressure;altitude;pressure_sealevel;temperature;humidity
72308;BME280;60257;42.638;23.376;2023-05-23T00:01:37;94481.94;;;10.96;87.28
72308;BME280;60257;42.638;23.376;2023-05-23T00:04:03;94499.13;;;11.09;87.35
72308;BME280;60257;42.638;23.376;2023-05-23T00:06:28;94493.63;;;11.09;87.11
72308;BME280;60257;42.638;23.376;2023-05-23T00:08:55;94498.78;;;11.10;86.77
72308;BME280;60257;42.638;23.376;2023-05-23T00:11:21;94497.91;;;11.06;86.66
72308;BME280;60257;42.638;23.376;2023-05-23T00:13:51;94496.13;;;10.98;86.83
72308;BME280;60257;42.638;23.376;2023-05-23T00:16:17;94492.59;;;10.98;87.03
72308;BME280;60257;42.638;23.376;2023-05-23T00:18:42;94489.56;;;11.03;86.72
72308;BME280;60257;42.638;23.376;2023-05-23T00:21:10;94483.09;;;10.95;86.39
72308;BME280;60257;42.638;23.376;2023-05-23T00:23:36;94495.22;;;10.94;86.06
72308;BME280;60257;42.638;23.376;2023-05-23T00:26:02;94495.50;;;10.89;86.69
72308;BME280;60257;42.638;23.376;2023-05-23T00:28:28;94491.59;;;10.90;86.93
72308;BME280;60257;42.638;23.376;2023-05-23T00:30:53;94480.44;;;10.83;87.04
72308;BME280;60257;42.638;23.376;2023-05-23T00:33:18;94486.81;;;10.87;87.43
72308;BME280;60257;42.638;23.376;2023-05-23T00:35:46;94487.88;;;10.83;87.54
72308;BME280;60257;42.638;23.376;2023-05-23T00:38:12;94481.75;;;10.73;86.44
72308;BME280;60257;42.638;23.376;2023-05-23T00:40:38;94486.00;;;10.71;86.61
72308;BME280;60257;42.638;23.376;2023-05-23T00:43:04;94476.53;;;10.68;86.89
72308;BME280;60257;42.638;23.376;2023-05-23T00:45:30;94480.44;;;10.67;87.64
72308;BME280;60257;42.638;23.376;2023-05-23T00:47:55;94474.69;;;10.72;87.25
72308;BME280;60257;42.638;23.376;2023-05-23T00:50:23;94481.75;;;10.73;87.34
72308;BME280;60257;42.638;23.376;2023-05-23T00:52:50;94472.91;;;10.64;86.76
72308;BME280;60257;42.638;23.376;2023-05-23T00:55:15;94486.00;;;10.71;87.03
72308;BME280;60257;42.638;23.376;2023-05-23T00:57:41;94468.47;;;10.60;87.44
72308;BME280;60257;42.638;23.376;2023-05-23T01:00:11;94465.63;;;10.56;87.27
72308;BME280;60257;42.638;23.376;2023-05-23T01:02:43;94470.66;;;10.54;87.05
72308;BME280;60257;42.638;23.376;2023-05-23T01:05:15;94481.72;;;10.58;87.51
72308;BME280;60257;42.638;23.376;2023-05-23T01:07:45;94483.69;;;10.57;87.38
72308;BME280;60257;42.638;23.376;2023-05-23T01:10:16;94482.53;;;10.58;87.45
72308;BME280;60257;42.638;23.376;2023-05-23T01:13:01;94484.81;;;10.56;87.40
72308;BME280;60257;42.638;23.376;2023-05-23T01:15:57;94484.81;;;10.56;87.72
72308;BME280;60257;42.638;23.376;2023-05-23T01:18:49;94479.25;;;10.53;87.44
72308;BME280;60257;42.638;23.376;2023-05-23T01:21:20;94483.56;;;10.54;87.39
72308;BME280;60257;42.638;23.376;2023-05-23T01:30:06;94492.50;;;10.51;86.90
72308;BME280;60257;42.638;23.376;2023-05-23T01:32:34;94481.88;;;10.49;86.19
72308;BME280;60257;42.638;23.376;2023-05-23T01:35:01;94483.09;;;10.36;86.04
72308;BME280;60257;42.638;23.376;2023-05-23T01:37:27;94490.28;;;10.40;86.38
72308;BME280;60257;42.638;23.376;2023-05-23T01:39:53;94489.38;;;10.36;86.42
72308;BME280;60257;42.638;23.376;2023-05-23T01:42:19;94481.97;;;10.37;86.40
72308;BME280;60257;42.638;23.376;2023-05-23T01:44:45;94472.94;;;10.36;86.10
72308;BME280;60257;42.638;23.376;2023-05-23T01:47:12;94477.63;;;10.36;85.78
72308;BME280;60257;42.638;23.376;2023-05-23T01:49:39;94465.75;;;10.32;86.51
72308;BME280;60257;42.638;23.376;2023-05-23T01:52:06;94469.22;;;10.29;87.08
72308;BME280;60257;42.638;23.376;2023-05-23T01:54:34;94462.81;;;10.25;87.13
72308;BME280;60257;42.638;23.376;2023-05-23T01:57:01;94471.16;;;10.28;87.30
72308;BME280;60257;42.638;23.376;2023-05-23T01:59:27;94476.53;;;10.25;87.79
72308;BME280;60257;42.638;23.376;2023-05-23T02:01:53;94479.38;;;10.28;87.55
72308;BME280;60257;42.638;23.376;2023-05-23T02:04:18;94468.31;;;10.25;88.00
72308;BME280;60257;42.638;23.376;2023-05-23T02:06:44;94465.09;;;10.23;88.08
72308;BME280;60257;42.638;23.376;2023-05-23T02:09:10;94464.44;;;10.14;88.20
72308;BME280;60257;42.638;23.376;2023-05-23T02:11:36;94472.22;;;10.12;88.07
72308;BME280;60257;42.638;23.376;2023-05-23T02:14:01;94481.81;;;10.18;87.49
72308;BME280;60257;42.638;23.376;2023-05-23T02:16:27;94481.56;;;10.11;88.06
72308;BME280;60257;42.638;23.376;2023-05-23T02:18:52;94475.97;;;10.07;87.33
72308;BME280;60257;42.638;23.376;2023-05-23T02:21:23;94475.75;;;10.12;87.60
72308;BME280;60257;42.638;23.376;2023-05-23T02:23:48;94463.00;;;10.04;87.91
72308;BME280;60257;42.638;23.376;2023-05-23T02:26:14;94472.44;;;10.07;88.28
72308;BME280;60257;42.638;23.376;2023-05-23T02:28:40;94470.97;;;10.09;87.75
72308;BME280;60257;42.638;23.376;2023-05-23T02:31:06;94475.28;;;10.10;87.79
72308;BME280;60257;42.638;23.376;2023-05-23T02:33:31;94481.03;;;10.05;87.50
72308;BME280;60257;42.638;23.376;2023-05-23T02:35:57;94472.00;;;10.04;87.48
72308;BME280;60257;42.638;23.376;2023-05-23T02:38:22;94465.28;;;10.02;87.39
72308;BME280;60257;42.638;23.376;2023-05-23T02:40:48;94449.09;;;9.97;86.98
72308;BME280;60257;42.638;23.376;2023-05-23T02:43:15;94456.00;;;10.07;86.54
72308;BME280;60257;42.638;23.376;2023-05-23T02:45:41;94460.25;;;10.04;86.54
72308;BME280;60257;42.638;23.376;2023-05-23T02:48:06;94464.22;;;10.07;86.38
72308;BME280;60257;42.638;23.376;2023-05-23T02:50:32;94461.41;;;10.03;86.28
72308;BME280;60257;42.638;23.376;2023-05-23T02:52:58;94463.09;;;10.08;86.08
72308;BME280;60257;42.638;23.376;2023-05-23T02:55:23;94459.31;;;10.12;85.00
72308;BME280;60257;42.638;23.376;2023-05-23T02:57:48;94463.53;;;10.10;84.31
72308;BME280;60257;42.638;23.376;2023-05-23T03:00:15;94462.34;;;9.95;84.89
72308;BME280;60257;42.638;23.376;2023-05-23T03:02:41;94449.38;;;9.80;85.16
72308;BME280;60257;42.638;23.376;2023-05-23T03:05:07;94457.84;;;9.75;85.37
72308;BME280;60257;42.638;23.376;2023-05-23T03:07:33;94461.53;;;9.67;86.20
72308;BME280;60257;42.638;23.376;2023-05-23T03:09:59;94452.72;;;9.73;85.84
72308;BME280;60257;42.638;23.376;2023-05-23T03:12:26;94453.81;;;9.84;85.80
72308;BME280;60257;42.638;23.376;2023-05-23T03:14:52;94458.06;;;9.82;85.92
72308;BME280;60257;42.638;23.376;2023-05-23T03:17:17;94463.75;;;9.77;86.14
72308;BME280;60257;42.638;23.376;2023-05-23T03:19:43;94464.56;;;9.77;86.30
72308;BME280;60257;42.638;23.376;2023-05-23T03:22:08;94462.97;;;9.76;86.01
72308;BME280;60257;42.638;23.376;2023-05-23T03:24:33;94454.50;;;9.81;85.73
72308;BME280;60257;42.638;23.376;2023-05-23T03:26:59;94452.38;;;9.75;85.60
72308;BME280;60257;42.638;23.376;2023-05-23T03:29:26;94468.66;;;9.83;85.43
72308;BME280;60257;42.638;23.376;2023-05-23T03:31:51;94469.91;;;9.86;85.47
72308;BME280;60257;42.638;23.376;2023-05-23T03:34:16;94471.50;;;9.87;85.27
72308;BME280;60257;42.638;23.376;2023-05-23T03:36:42;94480.25;;;9.92;84.89
72308;BME280;60257;42.638;23.376;2023-05-23T03:39:07;94486.75;;;10.00;84.91
72308;BME280;60257;42.638;23.376;2023-05-23T03:41:33;94490.72;;;10.02;84.37
72308;BME280;60257;42.638;23.376;2023-05-23T03:43:58;94492.13;;;9.96;84.30
72308;BME280;60257;42.638;23.376;2023-05-23T03:46:25;94487.88;;;9.99;84.05
72308;BME280;60257;42.638;23.376;2023-05-23T03:48:50;94488.78;;;10.03;84.09
72308;BME280;60257;42.638;23.376;2023-05-23T03:51:16;94478.63;;;10.03;84.37
72308;BME280;60257;42.638;23.376;2023-05-23T03:53:41;94485.00;;;10.08;84.38
72308;BME280;60257;42.638;23.376;2023-05-23T03:56:07;94480.44;;;10.12;84.49
72308;BME280;60257;42.638;23.376;2023-05-23T03:58:32;94485.91;;;10.12;84.82
72308;BME280;60257;42.638;23.376;2023-05-23T04:00:58;94485.34;;;10.18;84.55
72308;BME280;60257;42.638;23.376;2023-05-23T04:03:23;94483.84;;;10.21;83.96
72308;BME280;60257;42.638;23.376;2023-05-23T04:05:50;94483.84;;;10.21;83.79
72308;BME280;60257;42.638;23.376;2023-05-23T04:08:16;94486.09;;;10.31;83.05
72308;BME280;60257;42.638;23.376;2023-05-23T04:10:41;94495.28;;;10.38;83.12
72308;BME280;60257;42.638;23.376;2023-05-23T04:13:07;94489.94;;;10.42;83.23
72308;BME280;60257;42.638;23.376;2023-05-23T04:15:33;94481.09;;;10.49;82.97
72308;BME280;60257;42.638;23.376;2023-05-23T04:17:59;94496.09;;;10.67;83.03
72308;BME280;60257;42.638;23.376;2023-05-23T04:20:25;94497.88;;;10.75;83.50
72308;BME280;60257;42.638;23.376;2023-05-23T04:22:50;94496.97;;;10.71;83.01
72308;BME280;60257;42.638;23.376;2023-05-23T04:25:16;94481.91;;;10.65;82.69
72308;BME280;60257;42.638;23.376;2023-05-23T04:27:43;94488.13;;;10.77;83.39
72308;BME280;60257;42.638;23.376;2023-05-23T04:30:09;94492.91;;;10.80;82.94
72308;BME280;60257;42.638;23.376;2023-05-23T04:32:44;94498.31;;;10.93;82.92
72308;BME280;60257;42.638;23.376;2023-05-23T04:35:19;94503.09;;;11.11;82.57
72308;BME280;60257;42.638;23.376;2023-05-23T04:37:45;94494.94;;;11.31;82.11
72308;BME280;60257;42.638;23.376;2023-05-23T04:40:11;94496.72;;;11.39;81.58
72308;BME280;60257;42.638;23.376;2023-05-23T04:42:38;94495.22;;;11.41;81.68
72308;BME280;60257;42.638;23.376;2023-05-23T04:45:07;94497.75;;;11.66;81.11
72308;BME280;60257;42.638;23.376;2023-05-23T04:47:33;94495.50;;;11.87;80.32
72308;BME280;60257;42.638;23.376;2023-05-23T04:49:59;94500.31;;;12.09;79.40
72308;BME280;60257;42.638;23.376;2023-05-23T04:52:25;94500.31;;;12.28;78.70
72308;BME280;60257;42.638;23.376;2023-05-23T04:54:52;94499.38;;;12.40;78.61
72308;BME280;60257;42.638;23.376;2023-05-23T04:57:18;94506.41;;;12.38;77.77
72308;BME280;60257;42.638;23.376;2023-05-23T04:59:43;94507.56;;;12.37;78.94
72308;BME280;60257;42.638;23.376;2023-05-23T05:02:09;94510.75;;;12.39;78.68
72308;BME280;60257;42.638;23.376;2023-05-23T05:04:34;94510.47;;;12.44;77.72
72308;BME280;60257;42.638;23.376;2023-05-23T05:07:00;94518.56;;;12.37;77.69
72308;BME280;60257;42.638;23.376;2023-05-23T05:09:29;94516.97;;;12.36;78.06
72308;BME280;60257;42.638;23.376;2023-05-23T05:11:55;94514.34;;;12.23;78.31
72308;BME280;60257;42.638;23.376;2023-05-23T05:14:20;94521.03;;;12.22;79.12
72308;BME280;60257;42.638;23.376;2023-05-23T05:16:46;94522.09;;;12.18;79.05
72308;BME280;60257;42.638;23.376;2023-05-23T05:19:12;94522.47;;;12.36;78.50
72308;BME280;60257;42.638;23.376;2023-05-23T05:21:38;94523.25;;;12.55;77.95
72308;BME280;60257;42.638;23.376;2023-05-23T05:24:03;94525.56;;;12.72;77.04
72308;BME280;60257;42.638;23.376;2023-05-23T05:26:29;94526.22;;;12.85;76.64
72308;BME280;60257;42.638;23.376;2023-05-23T05:28:55;94523.19;;;12.94;76.22
72308;BME280;60257;42.638;23.376;2023-05-23T05:31:21;94500.25;;;12.86;76.48
72308;BME280;60257;42.638;23.376;2023-05-23T05:33:46;94527.56;;;13.14;76.29
72308;BME280;60257;42.638;23.376;2023-05-23T05:36:12;94534.66;;;13.15;76.13
72308;BME280;60257;42.638;23.376;2023-05-23T05:38:38;94526.06;;;13.20;75.62
72308;BME280;60257;42.638;23.376;2023-05-23T05:41:03;94526.81;;;13.17;75.30
72308;BME280;60257;42.638;23.376;2023-05-23T05:43:29;94521.25;;;13.14;76.03
72308;BME280;60257;42.638;23.376;2023-05-23T05:45:55;94522.88;;;13.41;75.44
72308;BME280;60257;42.638;23.376;2023-05-23T05:48:20;94520.78;;;13.57;75.53
72308;BME280;60257;42.638;23.376;2023-05-23T05:50:46;94522.25;;;13.74;75.53
72308;BME280;60257;42.638;23.376;2023-05-23T05:53:12;94526.41;;;13.38;76.18
72308;BME280;60257;42.638;23.376;2023-05-23T05:55:38;94526.47;;;13.68;76.94
72308;BME280;60257;42.638;23.376;2023-05-23T05:58:04;94519.09;;;14.02;77.93
72308;BME280;60257;42.638;23.376;2023-05-23T06:00:30;94520.06;;;14.39;76.21
72308;BME280;60257;42.638;23.376;2023-05-23T06:02:55;94532.63;;;14.10;74.92
72308;BME280;60257;42.638;23.376;2023-05-23T06:05:24;94511.66;;;14.32;75.37
72308;BME280;60257;42.638;23.376;2023-05-23T06:07:51;94519.50;;;14.30;76.56
72308;BME280;60257;42.638;23.376;2023-05-23T06:10:16;94515.50;;;14.24;76.95
72308;BME280;60257;42.638;23.376;2023-05-23T06:12:42;94520.44;;;14.11;77.87
72308;BME280;60257;42.638;23.376;2023-05-23T06:15:08;94525.75;;;13.97;76.72
72308;BME280;60257;42.638;23.376;2023-05-23T06:17:34;94517.38;;;13.90;76.65
72308;BME280;60257;42.638;23.376;2023-05-23T06:19:59;94518.84;;;13.58;77.15
72308;BME280;60257;42.638;23.376;2023-05-23T06:22:25;94533.63;;;13.72;77.82
72308;BME280;60257;42.638;23.376;2023-05-23T06:24:50;94526.78;;;13.63;77.55
72308;BME280;60257;42.638;23.376;2023-05-23T06:27:16;94520.69;;;13.50;78.83
72308;BME280;60257;42.638;23.376;2023-05-23T06:29:41;94507.22;;;13.71;77.96
72308;BME280;60257;42.638;23.376;2023-05-23T06:32:07;94520.59;;;13.96;77.22
72308;BME280;60257;42.638;23.376;2023-05-23T06:34:32;94522.63;;;13.99;76.90
72308;BME280;60257;42.638;23.376;2023-05-23T06:36:58;94509.53;;;13.92;76.18
72308;BME280;60257;42.638;23.376;2023-05-23T06:39:23;94524.28;;;13.77;76.90
72308;BME280;60257;42.638;23.376;2023-05-23T06:41:49;94522.63;;;13.99;76.78
72308;BME280;60257;42.638;23.376;2023-05-23T06:44:14;94524.88;;;14.19;76.67
72308;BME280;60257;42.638;23.376;2023-05-23T06:46:43;94534.19;;;14.38;76.14
72308;BME280;60257;42.638;23.376;2023-05-23T06:49:09;94520.25;;;14.53;75.80
72308;BME280;60257;42.638;23.376;2023-05-23T06:51:35;94526.50;;;14.50;75.43
72308;BME280;60257;42.638;23.376;2023-05-23T06:54:00;94523.00;;;14.53;75.32
72308;BME280;60257;42.638;23.376;2023-05-23T06:59:02;94509.19;;;14.53;75.11
72308;BME280;60257;42.638;23.376;2023-05-23T07:01:27;94513.31;;;14.10;76.65
72308;BME280;60257;42.638;23.376;2023-05-23T07:03:53;94509.09;;;14.16;76.71
72308;BME280;60257;42.638;23.376;2023-05-23T07:06:18;94515.72;;;14.38;76.11
72308;BME280;60257;42.638;23.376;2023-05-23T07:08:44;94503.09;;;14.41;76.04
72308;BME280;60257;42.638;23.376;2023-05-23T07:11:11;94509.75;;;14.66;75.91
72308;BME280;60257;42.638;23.376;2023-05-23T07:13:36;94509.78;;;14.70;75.29
72308;BME280;60257;42.638;23.376;2023-05-23T07:16:02;94509.28;;;14.94;75.50
72308;BME280;60257;42.638;23.376;2023-05-23T07:18:27;94496.72;;;15.00;74.83
72308;BME280;60257;42.638;23.376;2023-05-23T07:20:53;94496.84;;;15.14;75.08
72308;BME280;60257;42.638;23.376;2023-05-23T07:23:18;94487.09;;;15.24;74.46
72308;BME280;60257;42.638;23.376;2023-05-23T07:25:44;94489.91;;;15.34;73.40
72308;BME280;60257;42.638;23.376;2023-05-23T07:28:11;94494.22;;;15.28;73.12
72308;BME280;60257;42.638;23.376;2023-05-23T07:30:37;94490.75;;;15.38;72.93
72308;BME280;60257;42.638;23.376;2023-05-23T07:33:02;94485.63;;;15.37;72.95
72308;BME280;60257;42.638;23.376;2023-05-23T07:35:28;94479.41;;;15.47;74.03
72308;BME280;60257;42.638;23.376;2023-05-23T07:37:54;94486.09;;;15.50;72.18
72308;BME280;60257;42.638;23.376;2023-05-23T07:40:20;94483.72;;;15.45;72.56
72308;BME280;60257;42.638;23.376;2023-05-23T07:42:46;94478.53;;;15.39;72.93
72308;BME280;60257;42.638;23.376;2023-05-23T07:45:12;94483.34;;;15.50;73.52
72308;BME280;60257;42.638;23.376;2023-05-23T07:47:38;94481.19;;;15.69;74.00
72308;BME280;60257;42.638;23.376;2023-05-23T07:50:04;94474.91;;;15.76;73.95
72308;BME280;60257;42.638;23.376;2023-05-23T07:52:31;94476.25;;;16.00;73.91
72308;BME280;60257;42.638;23.376;2023-05-23T07:54:57;94472.31;;;16.04;73.10
72308;BME280;60257;42.638;23.376;2023-05-23T07:57:22;94467.25;;;16.21;72.69
72308;BME280;60257;42.638;23.376;2023-05-23T07:59:52;94467.25;;;16.21;72.48
72308;BME280;60257;42.638;23.376;2023-05-23T08:02:18;94475.59;;;16.24;73.42
72308;BME280;60257;42.638;23.376;2023-05-23T08:04:46;94476.06;;;16.40;72.79
72308;BME280;60257;42.638;23.376;2023-05-23T08:07:12;94474.88;;;16.38;72.78
72308;BME280;60257;42.638;23.376;2023-05-23T08:09:38;94470.09;;;16.31;72.70
72308;BME280;60257;42.638;23.376;2023-05-23T08:12:08;94469.69;;;16.26;72.18
72308;BME280;60257;42.638;23.376;2023-05-23T08:14:34;94462.56;;;16.28;71.35
72308;BME280;60257;42.638;23.376;2023-05-23T08:17:00;94454.25;;;16.25;71.63
72308;BME280;60257;42.638;23.376;2023-05-23T08:19:26;94470.53;;;16.44;71.78
72308;BME280;60257;42.638;23.376;2023-05-23T08:21:52;94456.28;;;16.42;69.92
72308;BME280;60257;42.638;23.376;2023-05-23T08:24:21;94465.38;;;16.39;70.64
72308;BME280;60257;42.638;23.376;2023-05-23T08:26:46;94470.94;;;16.46;70.85
72308;BME280;60257;42.638;23.376;2023-05-23T08:29:13;94456.75;;;16.54;70.87
72308;BME280;60257;42.638;23.376;2023-05-23T08:31:39;94461.09;;;16.55;70.24
72308;BME280;60257;42.638;23.376;2023-05-23T08:34:04;94463.53;;;16.61;70.45
72308;BME280;60257;42.638;23.376;2023-05-23T08:36:30;94454.44;;;16.67;70.18
72308;BME280;60257;42.638;23.376;2023-05-23T08:39:04;94458.84;;;16.79;69.61
72308;BME280;60257;42.638;23.376;2023-05-23T08:41:30;94458.88;;;16.86;69.17
72308;BME280;60257;42.638;23.376;2023-05-23T08:43:56;94464.81;;;16.99;68.43
72308;BME280;60257;42.638;23.376;2023-05-23T08:46:22;94452.97;;;17.16;68.54
72308;BME280;60257;42.638;23.376;2023-05-23T08:48:54;94458.53;;;17.23;67.37
72308;BME280;60257;42.638;23.376;2023-05-23T08:51:21;94454.97;;;17.26;68.75
72308;BME280;60257;42.638;23.376;2023-05-23T08:53:48;94460.13;;;17.31;67.09
72308;BME280;60257;42.638;23.376;2023-05-23T08:56:14;94458.91;;;17.28;67.22
72308;BME280;60257;42.638;23.376;2023-05-23T08:58:41;94462.50;;;17.36;66.96
72308;BME280;60257;42.638;23.376;2023-05-23T09:01:08;94458.94;;;17.43;68.12
72308;BME280;60257;42.638;23.376;2023-05-23T09:03:35;94459.72;;;17.54;66.66
72308;BME280;60257;42.638;23.376;2023-05-23T09:06:05;94459.38;;;17.62;67.16
72308;BME280;60257;42.638;23.376;2023-05-23T09:08:32;94453.81;;;17.55;65.46
72308;BME280;60257;42.638;23.376;2023-05-23T09:10:57;94449.84;;;17.71;67.26
72308;BME280;60257;42.638;23.376;2023-05-23T09:13:23;94454.59;;;17.77;66.66
72308;BME280;60257;42.638;23.376;2023-05-23T09:18:24;94442.28;;;18.03;62.46
72308;BME280;60257;42.638;23.376;2023-05-23T09:20:50;94438.31;;;18.11;61.04
72308;BME280;60257;42.638;23.376;2023-05-23T09:23:16;94438.66;;;18.20;62.04
72308;BME280;60257;42.638;23.376;2023-05-23T09:25:46;94437.84;;;18.20;59.48
72308;BME280;60257;42.638;23.376;2023-05-23T09:28:11;94442.22;;;18.21;54.27
72308;BME280;60257;42.638;23.376;2023-05-23T09:30:37;94440.25;;;18.14;53.76
72308;BME280;60257;42.638;23.376;2023-05-23T09:33:03;94441.84;;;18.15;52.50
72308;BME280;60257;42.638;23.376;2023-05-23T09:35:28;94433.53;;;18.12;54.59
72308;BME280;60257;42.638;23.376;2023-05-23T09:37:56;94429.91;;;18.32;56.60
72308;BME280;60257;42.638;23.376;2023-05-23T09:40:29;94432.63;;;18.50;53.97
72308;BME280;60257;42.638;23.376;2023-05-23T09:43:01;94432.59;;;18.64;53.26
72308;BME280;60257;42.638;23.376;2023-05-23T09:45:31;94431.41;;;18.65;53.06
72308;BME280;60257;42.638;23.376;2023-05-23T09:47:57;94427.34;;;18.77;51.22
72308;BME280;60257;42.638;23.376;2023-05-23T09:50:23;94417.81;;;18.78;50.15
72308;BME280;60257;42.638;23.376;2023-05-23T09:52:49;94427.31;;;18.84;50.98
72308;BME280;60257;42.638;23.376;2023-05-23T09:55:15;94415.34;;;18.94;50.36
72308;BME280;60257;42.638;23.376;2023-05-23T09:57:42;94417.72;;;18.96;49.58
72308;BME280;60257;42.638;23.376;2023-05-23T10:00:10;94409.34;;;19.03;51.34
72308;BME280;60257;42.638;23.376;2023-05-23T10:05:25;94412.41;;;19.19;49.41
72308;BME280;60257;42.638;23.376;2023-05-23T10:07:55;94416.34;;;19.25;49.75
72308;BME280;60257;42.638;23.376;2023-05-23T10:10:22;94409.53;;;19.33;48.15
72308;BME280;60257;42.638;23.376;2023-05-23T10:12:54;94413.78;;;19.45;50.39
72308;BME280;60257;42.638;23.376;2023-05-23T10:15:20;94402.72;;;19.41;49.54
72308;BME280;60257;42.638;23.376;2023-05-23T10:18:12;94415.34;;;19.53;49.50
72308;BME280;60257;42.638;23.376;2023-05-23T10:20:44;94412.56;;;19.56;48.87
72308;BME280;60257;42.638;23.376;2023-05-23T10:23:12;94409.22;;;19.72;48.83
72308;BME280;60257;42.638;23.376;2023-05-23T10:25:38;94397.31;;;19.72;48.99
72308;BME280;60257;42.638;23.376;2023-05-23T10:28:05;94396.84;;;19.80;48.51
72308;BME280;60257;42.638;23.376;2023-05-23T10:30:31;94399.72;;;19.70;48.38
72308;BME280;60257;42.638;23.376;2023-05-23T10:32:57;94399.56;;;19.84;49.06
72308;BME280;60257;42.638;23.376;2023-05-23T10:38:08;94388.03;;;19.85;48.05
72308;BME280;60257;42.638;23.376;2023-05-23T10:46:12;94383.50;;;20.02;42.49
72308;BME280;60257;42.638;23.376;2023-05-23T10:48:43;94387.09;;;19.99;41.86
72308;BME280;60257;42.638;23.376;2023-05-23T10:51:13;94377.09;;;20.05;44.14
72308;BME280;60257;42.638;23.376;2023-05-23T10:53:41;94380.69;;;20.02;42.11
72308;BME280;60257;42.638;23.376;2023-05-23T10:56:08;94379.59;;;19.92;42.76
72308;BME280;60257;42.638;23.376;2023-05-23T10:58:36;94371.22;;;19.96;44.22
72308;BME280;60257;42.638;23.376;2023-05-23T11:01:08;94379.75;;;20.16;42.33
72308;BME280;60257;42.638;23.376;2023-05-23T11:03:35;94376.66;;;20.07;42.64
72308;BME280;60257;42.638;23.376;2023-05-23T11:06:02;94363.19;;;20.05;41.39
72308;BME280;60257;42.638;23.376;2023-05-23T11:08:39;94373.44;;;20.12;40.59
72308;BME280;60257;42.638;23.376;2023-05-23T11:11:07;94362.66;;;20.14;40.41
72308;BME280;60257;42.638;23.376;2023-05-23T11:16:39;94371.59;;;20.32;41.68
72308;BME280;60257;42.638;23.376;2023-05-23T11:21:52;94359.75;;;20.24;41.45
72308;BME280;60257;42.638;23.376;2023-05-23T11:24:17;94372.72;;;20.42;40.57
72308;BME280;60257;42.638;23.376;2023-05-23T11:27:10;94360.41;;;20.39;38.58
72308;BME280;60257;42.638;23.376;2023-05-23T11:29:36;94347.81;;;20.27;39.12
72308;BME280;60257;42.638;23.376;2023-05-23T11:32:09;94358.88;;;20.31;39.88
72308;BME280;60257;42.638;23.376;2023-05-23T11:34:37;94347.81;;;20.27;39.71
72308;BME280;60257;42.638;23.376;2023-05-23T11:37:03;94351.97;;;20.46;38.49
72308;BME280;60257;42.638;23.376;2023-05-23T11:39:29;94351.88;;;20.53;39.19
72308;BME280;60257;42.638;23.376;2023-05-23T11:42:01;94344.09;;;20.68;39.24
72308;BME280;60257;42.638;23.376;2023-05-23T11:44:27;94353.34;;;20.61;38.82
72308;BME280;60257;42.638;23.376;2023-05-23T11:47:04;94344.56;;;20.63;38.27
72308;BME280;60257;42.638;23.376;2023-05-23T11:49:33;94349.78;;;20.61;38.79
72308;BME280;60257;42.638;23.376;2023-05-23T11:52:00;94337.84;;;20.60;38.88
72308;BME280;60257;42.638;23.376;2023-05-23T11:54:26;94344.19;;;20.61;38.84
72308;BME280;60257;42.638;23.376;2023-05-23T11:56:52;94338.59;;;20.64;39.69
72308;BME280;60257;42.638;23.376;2023-05-23T11:59:18;94342.84;;;20.72;39.68
72308;BME280;60257;42.638;23.376;2023-05-23T12:01:43;94331.19;;;20.81;40.15
72308;BME280;60257;42.638;23.376;2023-05-23T12:04:10;94322.34;;;20.86;40.53
72308;BME280;60257;42.638;23.376;2023-05-23T12:06:39;94331.16;;;21.08;40.90
72308;BME280;60257;42.638;23.376;2023-05-23T12:09:10;94329.25;;;21.05;36.71
72308;BME280;60257;42.638;23.376;2023-05-23T12:11:38;94337.41;;;21.16;36.42
72308;BME280;60257;42.638;23.376;2023-05-23T12:14:04;94328.13;;;20.99;36.38
72308;BME280;60257;42.638;23.376;2023-05-23T12:16:33;94330.28;;;20.88;37.49
72308;BME280;60257;42.638;23.376;2023-05-23T12:19:00;94318.66;;;20.93;37.25
72308;BME280;60257;42.638;23.376;2023-05-23T12:21:48;94317.03;;;20.95;36.80
72308;BME280;60257;42.638;23.376;2023-05-23T12:24:21;94315.41;;;20.98;38.42
72308;BME280;60257;42.638;23.376;2023-05-23T12:26:47;94314.94;;;21.03;38.01
72308;BME280;60257;42.638;23.376;2023-05-23T12:29:12;94306.56;;;21.03;38.21
72308;BME280;60257;42.638;23.376;2023-05-23T12:31:38;94296.88;;;21.11;39.79
72308;BME280;60257;42.638;23.376;2023-05-23T12:34:04;94299.03;;;21.27;39.79
72308;BME280;60257;42.638;23.376;2023-05-23T12:36:30;94296.25;;;21.50;38.36
72308;BME280;60257;42.638;23.376;2023-05-23T12:39:03;94292.34;;;21.67;37.07
72308;BME280;60257;42.638;23.376;2023-05-23T12:41:29;94293.47;;;21.70;36.77
72308;BME280;60257;42.638;23.376;2023-05-23T12:43:56;94289.31;;;21.58;36.20
72308;BME280;60257;42.638;23.376;2023-05-23T12:46:23;94279.91;;;21.48;36.45
72308;BME280;60257;42.638;23.376;2023-05-23T12:48:50;94286.16;;;21.56;36.41
72308;BME280;60257;42.638;23.376;2023-05-23T12:51:16;94273.00;;;21.57;35.86
72308;BME280;60257;42.638;23.376;2023-05-23T12:53:42;94277.25;;;21.65;35.57
72308;BME280;60257;42.638;23.376;2023-05-23T12:56:07;94277.28;;;21.61;36.20
72308;BME280;60257;42.638;23.376;2023-05-23T12:58:33;94262.69;;;21.54;36.17
72308;BME280;60257;42.638;23.376;2023-05-23T13:01:00;94276.59;;;21.57;36.26
72308;BME280;60257;42.638;23.376;2023-05-23T13:03:27;94267.28;;;21.64;36.40
72308;BME280;60257;42.638;23.376;2023-05-23T13:05:53;94243.88;;;21.77;33.88
72308;BME280;60257;42.638;23.376;2023-05-23T13:08:19;94257.97;;;21.70;34.68
72308;BME280;60257;42.638;23.376;2023-05-23T13:10:45;94263.94;;;21.72;34.82
72308;BME280;60257;42.638;23.376;2023-05-23T13:13:10;94257.78;;;21.81;33.49
72308;BME280;60257;42.638;23.376;2023-05-23T13:15:36;94263.66;;;21.67;32.00
72308;BME280;60257;42.638;23.376;2023-05-23T13:18:02;94254.91;;;21.65;32.05